createdAt,value
2017-09-03T00:01:36.087Z,7.03
2017-09-03T00:04:04.124Z,6.62
2017-09-03T00:06:32.924Z,6.53
2017-09-03T00:09:01.723Z,7.90
2017-09-03T00:11:29.776Z,9.13
2017-09-03T00:13:58.580Z,8.63
2017-09-03T00:16:34.923Z,9.25
2017-09-03T00:19:04.919Z,9.73
2017-09-03T00:21:32.947Z,10.98
2017-09-03T00:24:00.999Z,9.88
2017-09-03T00:26:29.036Z,10.20
2017-09-03T00:28:57.056Z,11.20
2017-09-03T00:31:25.097Z,11.25
2017-09-03T00:33:53.139Z,11.90
2017-09-03T00:36:22.127Z,12.13
2017-09-03T00:38:51.391Z,11.38
2017-09-03T00:41:19.407Z,11.85
2017-09-03T00:43:47.447Z,11.12
2017-09-03T00:46:18.407Z,11.75
2017-09-03T00:48:46.435Z,12.13
2017-09-03T00:51:14.455Z,12.65
2017-09-03T00:53:43.628Z,14.40
2017-09-03T00:56:12.635Z,13.57
2017-09-03T00:58:40.659Z,13.73
2017-09-03T01:01:08.685Z,14.57
2017-09-03T01:03:36.707Z,14.63
2017-09-03T01:06:04.731Z,16.12
2017-09-03T01:08:32.771Z,17.67
2017-09-03T01:11:00.799Z,17.10
2017-09-03T01:13:30.768Z,15.90
2017-09-03T01:15:58.791Z,16.50
2017-09-03T01:18:26.816Z,16.98
2017-09-03T01:20:54.847Z,15.98
2017-09-03T01:23:23.875Z,16.42
2017-09-03T01:25:51.922Z,16.17
2017-09-03T01:28:19.915Z,17.10
2017-09-03T01:30:47.976Z,17.05
2017-09-03T01:33:16.963Z,17.90
2017-09-03T01:35:46.983Z,16.37
2017-09-03T01:38:15.990Z,16.67
2017-09-03T01:40:44.011Z,17.12
2017-09-03T01:43:12.030Z,17.33
2017-09-03T01:45:41.034Z,16.60
2017-09-03T01:48:09.822Z,15.45
2017-09-03T01:50:39.598Z,15.65
2017-09-03T01:53:07.634Z,17.98
2017-09-03T01:55:35.655Z,16.27
2017-09-03T01:58:03.675Z,16.33
2017-09-03T02:00:31.714Z,15.40
2017-09-03T02:02:59.742Z,15.43
2017-09-03T02:05:27.754Z,15.45
2017-09-03T02:07:56.556Z,16.98
2017-09-03T02:10:24.578Z,15.00
2017-09-03T02:13:12.374Z,14.52
2017-09-03T02:15:40.389Z,14.52
2017-09-03T02:18:08.402Z,15.75
2017-09-03T02:20:36.475Z,15.20
2017-09-03T02:23:05.410Z,15.50
2017-09-03T02:25:33.431Z,15.85
2017-09-03T02:28:01.562Z,16.42
2017-09-03T02:30:29.583Z,16.55
2017-09-03T02:32:57.598Z,16.95
2017-09-03T02:35:25.627Z,18.85
2017-09-03T02:37:53.646Z,17.15
2017-09-03T02:40:23.338Z,16.02
2017-09-03T02:42:51.370Z,17.98
2017-09-03T02:45:19.394Z,16.70
2017-09-03T02:47:48.379Z,18.20
2017-09-03T02:50:18.751Z,17.55
2017-09-03T02:52:47.691Z,16.98
2017-09-03T02:55:19.358Z,18.42
2017-09-03T02:57:48.342Z,20.95
2017-09-03T03:00:16.373Z,17.17
2017-09-03T03:02:46.342Z,14.63
2017-09-03T03:05:16.344Z,16.15
2017-09-03T03:07:45.338Z,16.90
2017-09-03T03:10:15.045Z,17.50
2017-09-03T03:12:43.086Z,17.52
2017-09-03T03:15:12.005Z,19.48
2017-09-03T03:17:40.038Z,19.05
2017-09-03T03:20:08.057Z,23.90
2017-09-03T03:22:36.978Z,21.67
2017-09-03T03:25:04.961Z,19.27
2017-09-03T03:27:33.989Z,21.95
2017-09-03T03:30:02.016Z,17.05
2017-09-03T03:32:30.058Z,19.90
2017-09-03T03:34:59.842Z,18.60
2017-09-03T03:37:31.495Z,17.55
2017-09-03T03:40:00.488Z,19.17
2017-09-03T03:42:28.502Z,21.20
2017-09-03T03:44:56.538Z,21.65
2017-09-03T03:47:24.549Z,16.60
2017-09-03T03:49:58.429Z,20.15
2017-09-03T03:52:27.222Z,20.85
2017-09-03T03:54:56.180Z,21.90
2017-09-03T03:57:24.982Z,18.05
2017-09-03T03:59:53.007Z,19.87
2017-09-03T04:02:22.958Z,21.65
2017-09-03T04:04:51.963Z,24.20
2017-09-03T04:07:21.965Z,20.33
2017-09-03T04:09:50.963Z,14.60
2017-09-03T04:12:18.993Z,25.42
2017-09-03T04:14:48.021Z,21.37
2017-09-03T04:17:16.046Z,23.27
2017-09-03T04:19:44.094Z,18.73
2017-09-03T04:22:12.145Z,21.95
2017-09-03T04:24:40.177Z,27.45
2017-09-03T04:27:08.218Z,25.00
2017-09-03T04:29:36.242Z,21.73
2017-09-03T04:32:04.257Z,19.98
2017-09-03T04:34:34.234Z,17.55
2017-09-03T04:37:03.233Z,17.35
2017-09-03T04:39:39.578Z,22.23
2017-09-03T04:42:07.607Z,22.20
2017-09-03T04:44:36.554Z,20.33
2017-09-03T04:47:04.586Z,20.02
2017-09-03T04:49:33.601Z,17.20
2017-09-03T04:52:02.589Z,18.95
2017-09-03T04:54:31.609Z,15.93
2017-09-03T04:56:59.625Z,17.73
2017-09-03T04:59:27.654Z,19.40
2017-09-03T05:01:55.681Z,18.52
2017-09-03T05:04:23.713Z,19.42
2017-09-03T05:06:52.605Z,17.52
2017-09-03T05:09:21.573Z,17.52
2017-09-03T05:11:50.844Z,15.88
2017-09-03T05:14:31.445Z,15.13
2017-09-03T05:16:59.493Z,16.92
2017-09-03T05:19:39.521Z,16.08
2017-09-03T05:22:07.548Z,16.90
2017-09-03T05:24:35.578Z,16.23
2017-09-03T05:27:03.613Z,15.93
2017-09-03T05:29:33.565Z,15.73
2017-09-03T05:32:01.595Z,15.70
2017-09-03T05:34:36.025Z,14.07
2017-09-03T05:37:05.049Z,13.52
2017-09-03T05:39:33.080Z,15.10
2017-09-03T05:42:01.136Z,15.27
2017-09-03T05:44:29.168Z,14.55
2017-09-03T05:46:58.103Z,15.55
2017-09-03T05:49:26.124Z,14.95
2017-09-03T05:51:55.032Z,16.60
2017-09-03T05:54:23.076Z,15.77
2017-09-03T05:56:53.097Z,14.52
2017-09-03T05:59:26.789Z,15.25
2017-09-03T06:01:54.813Z,16.27
2017-09-03T06:04:23.857Z,15.05
2017-09-03T06:06:51.893Z,14.87
2017-09-03T06:09:19.941Z,14.75
2017-09-03T06:11:47.976Z,14.38
2017-09-03T06:14:16.120Z,16.20
2017-09-03T06:16:45.181Z,14.75
2017-09-03T06:19:13.220Z,15.77
2017-09-03T06:21:42.036Z,15.32
2017-09-03T06:24:10.088Z,14.93
2017-09-03T06:26:38.884Z,13.82
2017-09-03T06:29:06.933Z,15.15
2017-09-03T06:31:35.932Z,15.32
2017-09-03T06:34:08.292Z,13.30
2017-09-03T06:36:36.348Z,14.15
2017-09-03T06:39:04.392Z,15.02
2017-09-03T06:41:32.420Z,14.18
2017-09-03T06:44:00.492Z,15.85
2017-09-03T06:46:28.520Z,14.43
2017-09-03T06:48:57.544Z,15.10
2017-09-03T06:51:26.356Z,15.18
2017-09-03T06:53:54.390Z,15.73
2017-09-03T06:56:23.376Z,15.65
2017-09-03T06:58:51.428Z,16.48
2017-09-03T07:01:19.464Z,15.93
2017-09-03T07:03:48.412Z,15.10
2017-09-03T07:06:16.467Z,13.70
2017-09-03T07:08:45.476Z,13.40
2017-09-03T07:11:13.512Z,12.67
2017-09-03T07:13:42.555Z,13.13
2017-09-03T07:16:12.248Z,13.10
2017-09-03T07:18:40.272Z,11.83
2017-09-03T07:21:08.328Z,12.20
2017-09-03T07:23:36.355Z,12.70
2017-09-03T07:26:04.384Z,12.70
2017-09-03T07:28:32.432Z,13.20
2017-09-03T07:31:00.456Z,12.60
2017-09-03T07:33:29.458Z,12.87
2017-09-03T07:35:57.511Z,12.53
2017-09-03T07:38:26.519Z,12.10
2017-09-03T07:40:54.548Z,10.87
2017-09-03T07:43:25.755Z,11.43
2017-09-03T07:45:54.716Z,12.20
2017-09-03T07:48:22.748Z,11.17
2017-09-03T07:50:50.792Z,10.37
2017-09-03T07:53:19.595Z,10.40
2017-09-03T07:55:48.539Z,9.90
2017-09-03T07:58:16.583Z,10.37
2017-09-03T08:00:45.607Z,10.17
2017-09-03T08:03:15.539Z,9.20
2017-09-03T08:05:45.480Z,10.07
2017-09-03T08:08:13.511Z,9.60
2017-09-03T08:10:41.528Z,9.47
2017-09-03T08:13:11.507Z,8.80
2017-09-03T08:15:40.423Z,8.60
2017-09-03T08:18:09.196Z,6.53
2017-09-03T08:20:37.995Z,6.70
2017-09-03T08:23:06.011Z,6.73
2017-09-03T08:25:35.003Z,6.53
2017-09-03T08:28:03.023Z,6.90
2017-09-03T08:30:31.043Z,6.57
2017-09-03T08:32:59.055Z,7.17
2017-09-03T08:35:27.107Z,6.27
2017-09-03T08:37:55.123Z,6.93
2017-09-03T08:40:25.079Z,7.83
2017-09-03T08:42:53.116Z,6.73
2017-09-03T08:45:22.027Z,6.17
2017-09-03T08:47:51.023Z,6.43
2017-09-03T08:50:19.059Z,6.47
2017-09-03T08:52:47.979Z,6.77
2017-09-03T08:55:15.990Z,6.20
2017-09-03T08:57:44.963Z,6.23
2017-09-03T09:00:12.971Z,6.00
2017-09-03T09:02:42.939Z,6.00
2017-09-03T09:05:10.955Z,5.37
2017-09-03T09:07:39.888Z,5.50
2017-09-03T09:10:07.891Z,4.77
2017-09-03T09:12:36.679Z,5.80
2017-09-03T09:15:04.691Z,5.90
2017-09-03T09:17:40.243Z,4.70
2017-09-03T09:20:08.263Z,4.70
2017-09-03T09:22:37.942Z,3.90
2017-09-03T09:25:05.974Z,5.10
2017-09-03T09:27:35.007Z,4.93
2017-09-03T09:30:04.003Z,5.03
2017-09-03T09:32:35.448Z,6.00
2017-09-03T09:35:03.454Z,5.60
2017-09-03T09:37:31.478Z,5.20
2017-09-03T09:40:00.406Z,5.67
2017-09-03T09:42:31.106Z,4.23
2017-09-03T09:44:59.130Z,5.20
2017-09-03T09:47:27.170Z,4.70
2017-09-03T09:49:56.059Z,5.03
2017-09-03T09:52:24.070Z,4.63
2017-09-03T09:54:53.037Z,4.40
2017-09-03T09:57:22.810Z,4.37
2017-09-03T09:59:52.758Z,3.80
2017-09-03T10:02:21.722Z,4.30
2017-09-03T10:04:51.742Z,4.20
2017-09-03T10:07:19.774Z,3.77
2017-09-03T10:09:49.718Z,4.23
2017-09-03T10:12:23.318Z,3.80
2017-09-03T10:14:57.123Z,3.83
2017-09-03T10:17:27.150Z,2.40
2017-09-03T10:19:55.166Z,3.30
2017-09-03T10:22:23.178Z,2.87
2017-09-03T10:24:52.187Z,3.27
2017-09-03T10:27:21.174Z,3.57
2017-09-03T10:29:50.153Z,2.93
2017-09-03T10:32:18.186Z,2.93
2017-09-03T10:34:46.202Z,3.07
2017-09-03T10:37:14.217Z,2.80
2017-09-03T10:39:42.258Z,3.10
2017-09-03T10:42:10.291Z,3.40
2017-09-03T10:44:38.298Z,3.50
2017-09-03T10:47:06.326Z,2.63
2017-09-03T10:49:34.342Z,3.30
2017-09-03T10:52:02.358Z,3.30
2017-09-03T10:54:30.399Z,3.73
2017-09-03T10:56:58.425Z,3.73
2017-09-03T10:59:26.454Z,3.53
2017-09-03T11:01:54.494Z,3.53
2017-09-03T11:04:23.470Z,3.47
2017-09-03T11:06:51.497Z,3.57
2017-09-03T11:09:19.542Z,2.77
2017-09-03T11:11:48.409Z,2.80
2017-09-03T11:14:16.457Z,2.70
2017-09-03T11:16:44.482Z,2.77
2017-09-03T11:19:12.510Z,2.37
2017-09-03T11:21:44.093Z,3.37
2017-09-03T11:24:12.887Z,2.30
2017-09-03T11:26:40.914Z,2.60
2017-09-03T11:29:08.937Z,2.87
2017-09-03T11:31:36.957Z,2.57
2017-09-03T11:34:05.933Z,2.77
2017-09-03T11:36:33.958Z,2.63
2017-09-03T11:39:01.997Z,2.13
2017-09-03T11:41:30.017Z,2.80
2017-09-03T11:43:58.041Z,2.40
2017-09-03T11:46:32.837Z,2.00
2017-09-03T11:49:00.870Z,2.37
2017-09-03T11:51:28.941Z,2.60
2017-09-03T11:53:56.950Z,2.80
2017-09-03T11:56:24.989Z,2.30
2017-09-03T11:58:53.773Z,2.27
2017-09-03T12:01:21.808Z,2.30
2017-09-03T12:03:49.853Z,2.30
2017-09-03T12:06:18.845Z,2.50
2017-09-03T12:08:46.861Z,3.33
2017-09-03T12:11:16.845Z,2.63
2017-09-03T12:13:46.870Z,2.90
2017-09-03T12:16:15.021Z,2.30
2017-09-03T12:18:44.029Z,2.10
2017-09-03T12:21:12.957Z,2.27
2017-09-03T12:23:59.557Z,2.60
2017-09-03T12:26:28.601Z,2.47
2017-09-03T12:28:56.637Z,2.37
2017-09-03T12:31:25.593Z,2.27
2017-09-03T12:33:54.565Z,2.30
2017-09-03T12:36:22.597Z,2.87
2017-09-03T12:38:52.513Z,2.93
2017-09-03T12:41:21.538Z,2.43
2017-09-03T12:43:49.570Z,3.30
2017-09-03T12:46:18.497Z,2.77
2017-09-03T12:48:47.493Z,3.37
2017-09-03T12:51:15.513Z,2.90
2017-09-03T12:53:43.557Z,2.50
2017-09-03T12:56:12.465Z,2.63
2017-09-03T12:58:41.413Z,3.10
2017-09-03T13:01:13.860Z,2.40
2017-09-03T13:03:43.801Z,2.30
2017-09-03T13:06:12.833Z,2.67
2017-09-03T13:08:45.365Z,2.07
2017-09-03T13:11:13.401Z,2.23
2017-09-03T13:13:41.436Z,2.20
2017-09-03T13:16:11.429Z,2.20
2017-09-03T13:18:44.041Z,3.00
2017-09-03T13:21:12.944Z,2.73
2017-09-03T13:23:40.981Z,3.57
2017-09-03T13:26:09.893Z,2.60
2017-09-03T13:28:38.841Z,3.67
2017-09-03T13:31:10.724Z,2.40
2017-09-03T13:33:39.700Z,2.90
2017-09-03T13:36:08.625Z,2.97
2017-09-03T13:38:36.660Z,2.83
2017-09-03T13:41:08.296Z,2.83
2017-09-03T13:43:36.349Z,2.70
2017-09-03T13:46:07.737Z,2.27
2017-09-03T13:48:39.510Z,2.63
2017-09-03T13:51:08.468Z,3.03
2017-09-03T13:53:36.488Z,2.67
2017-09-03T13:56:04.528Z,2.53
2017-09-03T13:58:35.556Z,2.00
2017-09-03T14:01:03.580Z,2.67
2017-09-03T14:03:31.628Z,2.57
2017-09-03T14:06:00.424Z,2.60
2017-09-03T14:08:28.449Z,2.50
2017-09-03T14:10:56.473Z,2.23
2017-09-03T14:13:24.507Z,1.90
2017-09-03T14:15:52.513Z,1.73
2017-09-03T14:18:26.204Z,1.90
2017-09-03T14:20:54.258Z,2.47
2017-09-03T14:23:23.236Z,3.07
2017-09-03T14:25:56.420Z,2.20
2017-09-03T14:28:24.452Z,2.20
2017-09-03T14:30:52.472Z,2.40
2017-09-03T14:33:22.483Z,2.60
2017-09-03T14:35:50.504Z,2.87
2017-09-03T14:38:19.535Z,3.27
2017-09-03T14:40:48.553Z,2.83
2017-09-03T14:43:16.576Z,2.30
2017-09-03T14:45:44.608Z,2.13
2017-09-03T14:48:16.333Z,2.60
2017-09-03T14:50:44.356Z,2.10
2017-09-03T14:53:13.388Z,2.50
2017-09-03T14:55:42.388Z,3.10
2017-09-03T14:58:11.368Z,2.57
2017-09-03T15:00:41.379Z,2.73
2017-09-03T15:03:11.332Z,2.90
2017-09-03T15:05:40.291Z,2.80
2017-09-03T15:08:08.316Z,2.90
2017-09-03T15:10:36.348Z,3.53
2017-09-03T15:13:06.040Z,3.33
2017-09-03T15:15:34.063Z,3.70
2017-09-03T15:18:02.088Z,3.60
2017-09-03T15:20:31.079Z,3.60
2017-09-03T15:22:59.107Z,2.93
2017-09-03T15:25:28.139Z,3.70
2017-09-03T15:28:03.646Z,3.13
2017-09-03T15:30:32.683Z,2.77
2017-09-03T15:33:00.691Z,2.50
2017-09-03T15:35:28.712Z,1.97
2017-09-03T15:37:57.643Z,2.20
2017-09-03T15:40:25.683Z,2.20
2017-09-03T15:43:04.371Z,2.37
2017-09-03T15:45:32.395Z,1.80
2017-09-03T15:48:00.428Z,2.00
2017-09-03T15:50:28.463Z,1.80
2017-09-03T15:52:56.484Z,1.93
2017-09-03T15:55:25.455Z,1.63
2017-09-03T15:57:53.483Z,2.37
2017-09-03T16:00:27.543Z,2.10
2017-09-03T16:02:56.545Z,1.87
2017-09-03T16:05:25.535Z,2.13
2017-09-03T16:07:53.551Z,1.83
2017-09-03T16:10:21.587Z,1.80
2017-09-03T16:12:49.599Z,2.40
2017-09-03T16:15:21.915Z,2.13
2017-09-03T16:17:54.067Z,2.53
2017-09-03T16:20:24.095Z,2.80
2017-09-03T16:22:52.122Z,1.97
2017-09-03T16:25:22.068Z,1.90
2017-09-03T16:27:50.098Z,2.20
2017-09-03T16:30:18.355Z,1.70
2017-09-03T16:32:52.198Z,1.70
2017-09-03T16:35:20.219Z,2.23
2017-09-03T16:37:48.234Z,1.70
2017-09-03T16:40:17.260Z,2.07
2017-09-03T16:42:45.278Z,2.00
2017-09-03T16:45:14.223Z,1.60
2017-09-03T16:47:42.258Z,1.97
2017-09-03T16:50:11.295Z,1.87
2017-09-03T16:52:39.330Z,2.10
2017-09-03T16:55:07.350Z,2.10
2017-09-03T16:57:37.125Z,1.90
2017-09-03T17:00:06.034Z,2.13
2017-09-03T17:02:36.074Z,2.23
2017-09-03T17:05:05.022Z,1.93
2017-09-03T17:07:34.014Z,2.30
2017-09-03T17:10:02.038Z,2.30
2017-09-03T17:12:32.002Z,2.20
2017-09-03T17:15:00.993Z,2.10
2017-09-03T17:17:30.010Z,2.37
2017-09-03T17:20:07.290Z,2.70
2017-09-03T17:22:36.281Z,2.00
2017-09-03T17:25:11.059Z,2.33
2017-09-03T17:27:40.102Z,2.73
2017-09-03T17:43:39.631Z,2.60
2017-09-03T17:46:11.234Z,3.17
2017-09-03T17:48:41.254Z,2.70
2017-09-03T17:51:09.274Z,3.43
2017-09-03T17:53:39.238Z,2.57
2017-09-03T17:56:07.262Z,2.93
2017-09-03T17:58:35.277Z,5.20
2017-09-03T18:01:06.426Z,3.57
2017-09-03T18:03:35.410Z,4.40
2017-09-03T18:06:04.417Z,3.90
2017-09-03T18:08:33.422Z,4.00
2017-09-03T18:11:02.394Z,4.50
2017-09-03T18:13:30.416Z,4.20
2017-09-03T18:15:58.441Z,5.17
2017-09-03T18:18:27.414Z,4.30
2017-09-03T18:20:56.422Z,5.43
2017-09-03T18:23:24.478Z,17.97
2017-09-03T18:25:52.485Z,8.37
2017-09-03T18:28:21.713Z,5.07
2017-09-03T18:31:11.585Z,3.60
2017-09-03T18:33:39.574Z,4.00
2017-09-03T18:36:25.381Z,3.60
2017-09-03T18:38:58.870Z,4.63
2017-09-03T18:41:27.017Z,4.20
2017-09-03T18:44:10.369Z,4.27
2017-09-03T18:46:39.265Z,4.63
2017-09-03T18:49:09.238Z,4.57
2017-09-03T18:51:51.513Z,4.43
2017-09-03T18:54:25.554Z,4.07
2017-09-03T18:56:54.525Z,3.73
2017-09-03T18:59:34.289Z,3.47
2017-09-03T19:02:02.345Z,3.87
2017-09-03T19:04:32.837Z,3.60
2017-09-03T19:07:01.861Z,3.10
2017-09-03T19:09:31.769Z,4.83
2017-09-03T19:14:26.505Z,5.40
2017-09-03T19:16:54.536Z,6.40
2017-09-03T19:19:22.553Z,5.73
2017-09-03T19:21:51.501Z,5.57
2017-09-03T19:24:20.489Z,5.97
2017-09-03T19:26:48.521Z,6.80
2017-09-03T19:29:17.577Z,5.80
2017-09-03T19:31:45.609Z,5.90
2017-09-03T19:34:13.657Z,5.43
2017-09-03T19:36:43.472Z,6.10
2017-09-03T19:39:11.493Z,6.83
2017-09-03T19:41:39.517Z,7.43
2017-09-03T19:44:08.553Z,6.53
2017-09-03T19:46:37.521Z,5.50
2017-09-03T19:49:05.540Z,6.07
2017-09-03T19:51:34.074Z,6.63
2017-09-03T19:54:05.517Z,5.53
2017-09-03T19:56:34.521Z,5.80
2017-09-03T19:59:04.537Z,5.53
2017-09-03T20:01:33.317Z,6.00
2017-09-03T20:04:01.349Z,5.77
2017-09-03T20:06:29.368Z,5.80
2017-09-03T20:08:57.696Z,6.73
2017-09-03T20:11:25.748Z,5.60
2017-09-03T20:13:54.537Z,5.30
2017-09-03T20:16:22.568Z,5.63
2017-09-03T20:18:50.596Z,5.87
2017-09-03T20:21:20.548Z,4.77
2017-09-03T20:23:48.576Z,4.70
2017-09-03T20:26:16.620Z,5.47
2017-09-03T20:28:44.659Z,5.00
2017-09-03T20:31:16.217Z,4.87
2017-09-03T20:33:45.196Z,5.90
2017-09-03T20:36:13.229Z,5.35
2017-09-03T20:38:42.932Z,4.87
2017-09-03T20:41:10.956Z,5.12
2017-09-03T20:43:39.949Z,4.30
2017-09-03T20:46:08.956Z,4.65
2017-09-03T20:48:38.664Z,4.72
2017-09-03T20:51:06.697Z,5.62
2017-09-03T20:53:35.496Z,6.25
2017-09-03T20:56:04.409Z,5.37
2017-09-03T20:58:32.480Z,6.30
2017-09-03T21:01:01.403Z,6.15
2017-09-03T21:03:29.428Z,6.22
2017-09-03T21:05:57.460Z,6.60
2017-09-03T21:08:25.503Z,5.55
2017-09-03T21:11:00.580Z,6.82
2017-09-03T21:13:29.628Z,6.05
2017-09-03T21:15:57.660Z,6.45
2017-09-03T21:18:29.339Z,7.12
2017-09-03T21:20:58.336Z,6.47
2017-09-03T21:23:26.365Z,8.25
2017-09-03T21:25:54.408Z,8.48
2017-09-03T21:28:22.424Z,8.60
2017-09-03T21:30:51.412Z,7.05
2017-09-03T21:33:20.772Z,8.13
2017-09-03T21:35:48.756Z,8.65
2017-09-03T21:38:20.860Z,8.77
2017-09-03T21:40:48.885Z,7.68
2017-09-03T21:43:18.844Z,7.40
2017-09-03T21:45:47.854Z,7.18
2017-09-03T21:48:16.648Z,7.03
2017-09-03T21:50:44.688Z,7.25
2017-09-03T21:53:12.736Z,6.72
2017-09-03T21:55:40.772Z,6.30
2017-09-03T21:58:08.788Z,8.07
2017-09-03T22:00:36.831Z,8.00
2017-09-03T22:03:04.859Z,7.55
2017-09-03T22:05:32.876Z,7.32
2017-09-03T22:08:02.827Z,7.80
2017-09-03T22:10:30.847Z,7.22
2017-09-03T22:12:59.779Z,7.70
2017-09-03T22:15:27.816Z,8.77
2017-09-03T22:17:57.767Z,8.55
2017-09-03T22:20:25.795Z,8.10
2017-09-03T22:22:53.816Z,8.05
2017-09-03T22:25:21.835Z,7.85
2017-09-03T22:27:49.847Z,7.47
2017-09-03T22:30:17.891Z,8.30
2017-09-03T22:32:46.907Z,7.50
2017-09-03T22:35:14.935Z,8.15
2017-09-03T22:37:42.976Z,8.60
2017-09-03T22:40:12.755Z,8.32
2017-09-03T22:42:40.775Z,9.00
2017-09-03T22:45:09.727Z,7.43
2017-09-03T22:47:38.700Z,8.85
2017-09-03T22:50:06.719Z,8.90
2017-09-03T22:52:34.761Z,8.50
2017-09-03T22:55:02.784Z,9.18
2017-09-03T22:57:30.888Z,9.30
2017-09-03T22:59:59.904Z,10.43
2017-09-03T23:02:28.883Z,8.75
2017-09-03T23:04:56.903Z,9.27
2017-09-03T23:07:26.859Z,8.60
2017-09-03T23:09:56.779Z,8.38
2017-09-03T23:12:26.799Z,8.95
2017-09-03T23:14:54.835Z,8.02
2017-09-03T23:17:22.860Z,8.00
2017-09-03T23:19:55.824Z,8.20
2017-09-03T23:22:24.799Z,9.15
2017-09-03T23:24:52.816Z,8.93
2017-09-03T23:27:20.851Z,8.85
2017-09-03T23:29:48.859Z,8.90
2017-09-03T23:32:16.871Z,8.02
2017-09-03T23:34:44.907Z,8.52
2017-09-03T23:37:12.911Z,7.90
2017-09-03T23:39:40.920Z,8.02
2017-09-03T23:42:09.883Z,8.30
2017-09-03T23:44:37.910Z,8.27
2017-09-03T23:47:05.931Z,9.27
2017-09-03T23:49:33.954Z,8.75
2017-09-03T23:52:02.974Z,8.43
2017-09-03T23:54:30.994Z,7.70
2017-09-03T23:57:02.111Z,8.38
2017-09-03T23:59:30.126Z,9.25
